createdAt,value
2019-02-23T00:01:07.773Z,1003.71
2019-02-23T00:02:17.704Z,1003.71
2019-02-23T00:03:27.626Z,1003.75
2019-02-23T00:04:37.546Z,1003.75
2019-02-23T00:05:47.470Z,1003.67
2019-02-23T00:06:57.387Z,1003.7
2019-02-23T00:08:07.310Z,1003.7
2019-02-23T00:09:17.230Z,1003.74
2019-02-23T00:10:27.159Z,1003.83
2019-02-23T00:11:37.082Z,1003.85
2019-02-23T00:12:47.007Z,1003.88
2019-02-23T00:13:56.924Z,1003.92
2019-02-23T00:15:06.858Z,1003.91
2019-02-23T00:16:16.790Z,1003.78
2019-02-23T00:17:26.704Z,1003.78
2019-02-23T00:18:36.627Z,1003.75
2019-02-23T00:19:46.545Z,1003.71
2019-02-23T00:20:56.465Z,1003.76
2019-02-23T00:22:06.389Z,1003.68
2019-02-23T00:23:16.412Z,1003.81
2019-02-23T00:24:26.417Z,1003.83
2019-02-23T00:25:36.341Z,1003.84
2019-02-23T00:26:46.264Z,1003.81
2019-02-23T00:27:56.181Z,1003.82
2019-02-23T00:29:06.099Z,1003.86
2019-02-23T00:30:16.015Z,1003.9
2019-02-23T00:31:25.935Z,1003.99
2019-02-23T00:32:35.850Z,1003.99
2019-02-23T00:33:45.771Z,1003.97
2019-02-23T00:34:55.797Z,1003.95
2019-02-23T00:36:05.731Z,1003.91
2019-02-23T00:37:15.652Z,1003.85
2019-02-23T00:38:25.571Z,1003.86
2019-02-23T00:39:35.488Z,1003.95
2019-02-23T00:40:45.488Z,1003.94
2019-02-23T00:41:55.409Z,1003.99
2019-02-23T00:43:05.326Z,1004.01
2019-02-23T00:44:15.242Z,1003.99
2019-02-23T00:45:25.163Z,1003.94
2019-02-23T00:46:35.181Z,1003.8
2019-02-23T00:47:45.098Z,1003.8
2019-02-23T00:48:55.023Z,1003.78
2019-02-23T00:50:04.946Z,1003.78
2019-02-23T00:51:14.866Z,1003.81
2019-02-23T00:52:24.889Z,1003.74
2019-02-23T00:53:34.830Z,1003.66
2019-02-23T00:54:44.497Z,1003.62
2019-02-23T00:55:54.427Z,1003.69
2019-02-23T00:57:04.361Z,1003.66
2019-02-23T00:58:14.284Z,1003.66
2019-02-23T00:59:24.217Z,1003.68
2019-02-23T01:00:34.134Z,1003.69
2019-02-23T01:01:44.054Z,1003.67
2019-02-23T01:02:53.978Z,1003.61
2019-02-23T01:04:03.907Z,1003.64
2019-02-23T01:05:13.827Z,1003.58
2019-02-23T01:06:23.751Z,1003.57
2019-02-23T01:07:33.675Z,1003.58
2019-02-23T01:08:43.602Z,1003.61
2019-02-23T01:09:53.520Z,1003.6
2019-02-23T01:11:03.438Z,1003.61
2019-02-23T01:12:13.363Z,1003.63
2019-02-23T01:13:23.285Z,1003.66
2019-02-23T01:14:33.202Z,1003.66
2019-02-23T01:15:43.119Z,1003.69
2019-02-23T01:16:53.041Z,1003.73
2019-02-23T01:18:02.982Z,1003.75
2019-02-23T01:19:12.998Z,1003.73
2019-02-23T01:20:22.938Z,1003.71
2019-02-23T01:21:32.857Z,1003.73
2019-02-23T01:22:42.779Z,1003.67
2019-02-23T01:23:52.703Z,1003.68
2019-02-23T01:25:02.635Z,1003.68
2019-02-23T01:26:12.320Z,1003.73
2019-02-23T01:27:22.344Z,1003.73
2019-02-23T01:28:32.271Z,1003.76
2019-02-23T01:29:42.195Z,1003.79
2019-02-23T01:30:52.117Z,1003.79
2019-02-23T01:32:02.039Z,1003.76
2019-02-23T01:33:12.062Z,1003.72
2019-02-23T01:34:21.983Z,1003.77
2019-02-23T01:35:31.918Z,1003.79
2019-02-23T01:36:41.581Z,1003.74
2019-02-23T01:37:51.506Z,1003.7
2019-02-23T01:39:01.522Z,1003.73
2019-02-23T01:40:11.517Z,1003.67
2019-02-23T01:41:21.439Z,1003.71
2019-02-23T01:42:31.357Z,1003.69
2019-02-23T01:43:41.273Z,1003.67
2019-02-23T01:44:51.310Z,1003.66
2019-02-23T01:46:01.235Z,1003.64
2019-02-23T01:47:11.151Z,1003.74
2019-02-23T01:48:21.072Z,1003.7
2019-02-23T01:49:30.998Z,1003.7
2019-02-23T01:50:40.918Z,1003.66
2019-02-23T01:51:50.843Z,1003.66
2019-02-23T01:53:00.761Z,1003.61
2019-02-23T01:54:10.687Z,1003.67
2019-02-23T01:55:20.606Z,1003.74
2019-02-23T01:56:30.624Z,1003.74
2019-02-23T01:57:40.539Z,1003.8
2019-02-23T01:58:50.487Z,1003.81
2019-02-23T02:00:00.457Z,1003.79
2019-02-23T02:01:10.399Z,1003.78
2019-02-23T02:02:20.321Z,1003.74
2019-02-23T02:03:30.240Z,1003.69
2019-02-23T02:04:40.155Z,1003.72
2019-02-23T02:05:50.083Z,1003.74
2019-02-23T02:07:00.008Z,1003.74
2019-02-23T02:08:10.113Z,1003.7
2019-02-23T02:09:20.035Z,1003.7
2019-02-23T02:10:29.962Z,1003.71
2019-02-23T02:11:39.876Z,1003.7
2019-02-23T02:12:49.798Z,1003.66
2019-02-23T02:13:59.857Z,1003.74
2019-02-23T02:15:09.783Z,1003.67
2019-02-23T02:16:19.710Z,1003.65
2019-02-23T02:17:29.635Z,1003.6
2019-02-23T02:18:39.647Z,1003.62
2019-02-23T02:19:49.609Z,1003.59
2019-02-23T02:21:10.977Z,1003.55
2019-02-23T02:22:20.901Z,1003.59
2019-02-23T02:23:30.820Z,1003.61
2019-02-23T02:24:40.755Z,1003.61
2019-02-23T02:25:50.773Z,1003.6
2019-02-23T02:27:00.711Z,1003.67
2019-02-23T02:28:10.632Z,1003.61
2019-02-23T02:29:20.552Z,1003.62
2019-02-23T02:30:30.228Z,1003.58
2019-02-23T02:31:39.902Z,1003.58
2019-02-23T02:32:49.837Z,1003.55
2019-02-23T02:33:59.787Z,1003.55
2019-02-23T02:35:09.703Z,1003.52
2019-02-23T02:36:19.633Z,1003.56
2019-02-23T02:37:29.674Z,1003.51
2019-02-23T02:38:39.619Z,1003.63
2019-02-23T02:39:49.537Z,1003.64
2019-02-23T02:40:59.470Z,1003.64
2019-02-23T02:42:09.147Z,1003.63
2019-02-23T02:43:19.188Z,1003.59
2019-02-23T02:44:29.126Z,1003.61
2019-02-23T02:45:39.042Z,1003.59
2019-02-23T02:46:48.982Z,1003.58
2019-02-23T02:47:58.898Z,1003.58
2019-02-23T02:49:08.827Z,1003.61
2019-02-23T02:50:24.103Z,1003.59
2019-02-23T02:51:34.240Z,1003.61
2019-02-23T02:52:44.187Z,1003.58
2019-02-23T02:53:54.118Z,1003.6
2019-02-23T02:55:04.041Z,1003.55
2019-02-23T02:56:14.003Z,1003.53
2019-02-23T02:57:23.928Z,1003.47
2019-02-23T02:58:33.852Z,1003.45
2019-02-23T02:59:43.789Z,1003.43
2019-02-23T03:00:53.808Z,1003.46
2019-02-23T03:02:03.736Z,1003.47
2019-02-23T03:03:13.679Z,1003.41
2019-02-23T03:04:23.611Z,1003.47
2019-02-23T03:05:33.540Z,1003.52
2019-02-23T03:06:43.559Z,1003.52
2019-02-23T03:07:53.479Z,1003.53
2019-02-23T03:09:03.405Z,1003.53
2019-02-23T03:10:13.335Z,1003.63
2019-02-23T03:11:23.271Z,1003.71
2019-02-23T03:12:33.313Z,1003.71
2019-02-23T03:13:43.242Z,1003.71
2019-02-23T03:14:53.170Z,1003.65
2019-02-23T03:16:03.103Z,1003.6
2019-02-23T03:17:13.061Z,1003.58
2019-02-23T03:18:23.098Z,1003.59
2019-02-23T03:19:33.029Z,1003.63
2019-02-23T03:20:42.944Z,1003.57
2019-02-23T03:21:52.611Z,1003.53
2019-02-23T03:23:02.290Z,1003.41
2019-02-23T03:24:12.315Z,1003.34
2019-02-23T03:25:22.261Z,1003.32
2019-02-23T03:26:32.195Z,1003.34
2019-02-23T03:27:42.132Z,1003.37
2019-02-23T03:28:52.054Z,1003.39
2019-02-23T03:30:02.140Z,1003.36
2019-02-23T03:31:12.095Z,1003.33
2019-02-23T03:32:22.057Z,1003.38
2019-02-23T03:33:32.058Z,1003.41
2019-02-23T03:34:41.757Z,1003.35
2019-02-23T03:35:51.814Z,1003.35
2019-02-23T03:37:01.752Z,1003.36
2019-02-23T03:38:11.674Z,1003.32
2019-02-23T03:39:21.596Z,1003.31
2019-02-23T03:40:31.510Z,1003.31
2019-02-23T03:41:41.440Z,1003.28
2019-02-23T03:42:51.371Z,1003.27
2019-02-23T03:44:01.303Z,1003.3
2019-02-23T03:45:11.231Z,1003.24
2019-02-23T03:46:21.181Z,1003.28
2019-02-23T03:47:31.116Z,1003.17
2019-02-23T03:48:41.067Z,1003.17
2019-02-23T03:49:50.986Z,1003.15
2019-02-23T03:51:00.905Z,1003.17
2019-02-23T03:52:10.840Z,1003.13
2019-02-23T03:53:20.771Z,1003.18
2019-02-23T03:54:30.690Z,1003.15
2019-02-23T03:55:40.613Z,1003.18
2019-02-23T03:56:50.532Z,1003.23
2019-02-23T03:58:00.450Z,1003.15
2019-02-23T03:59:10.470Z,1003.14
2019-02-23T04:00:20.393Z,1003.14
2019-02-23T04:01:30.331Z,1003.11
2019-02-23T04:02:40.264Z,1003.03
2019-02-23T04:03:50.209Z,1003.07
2019-02-23T04:05:00.342Z,1003.16
2019-02-23T04:06:10.360Z,1003.19
2019-02-23T04:07:20.298Z,1003.22
2019-02-23T04:08:30.218Z,1003.18
2019-02-23T04:09:40.154Z,1003.28
2019-02-23T04:10:50.180Z,1003.3
2019-02-23T04:12:00.113Z,1003.28
2019-02-23T04:13:10.072Z,1003.21
2019-02-23T04:14:20.031Z,1003.14
2019-02-23T04:15:29.958Z,1003.16
2019-02-23T04:16:39.884Z,1003.14
2019-02-23T04:17:49.799Z,1003.22
2019-02-23T04:18:59.727Z,1003.27
2019-02-23T04:20:09.662Z,1003.09
2019-02-23T04:21:19.601Z,1003.11
2019-02-23T04:22:29.517Z,1003.25
2019-02-23T04:23:39.201Z,1003.34
2019-02-23T04:24:49.219Z,1003.35
2019-02-23T04:25:59.162Z,1003.29
2019-02-23T04:27:09.086Z,1003.27
2019-02-23T04:28:19.012Z,1003.38
2019-02-23T04:29:28.937Z,1003.26
2019-02-23T04:30:38.858Z,1003.19
2019-02-23T04:31:48.796Z,1003.22
2019-02-23T04:32:58.736Z,1003.22
2019-02-23T04:34:08.688Z,1003.11
2019-02-23T04:35:18.620Z,1003.11
2019-02-23T04:36:28.548Z,1003.23
2019-02-23T04:37:38.467Z,1003.06
2019-02-23T04:38:48.139Z,1003.04
2019-02-23T04:39:58.058Z,1003.1
2019-02-23T04:41:08.132Z,1003.1
2019-02-23T04:42:18.059Z,1002.94
2019-02-23T04:43:28.002Z,1003.14
2019-02-23T04:44:37.674Z,1003
2019-02-23T04:45:47.717Z,1003
2019-02-23T04:46:57.389Z,1003.08
2019-02-23T04:48:07.311Z,1002.98
2019-02-23T04:49:16.988Z,1003.07
2019-02-23T04:50:28.892Z,1003.05
2019-02-23T04:51:38.921Z,1003.1
2019-02-23T04:52:48.847Z,1003.06
2019-02-23T04:53:58.507Z,1003.18
2019-02-23T04:55:08.437Z,1003.22
2019-02-23T04:56:18.363Z,1003.25
2019-02-23T04:57:28.388Z,1003.27
2019-02-23T04:58:38.340Z,1003.2
2019-02-23T04:59:48.302Z,1003.21
2019-02-23T05:00:58.290Z,1003.2
2019-02-23T05:02:08.222Z,1003.18
2019-02-23T05:03:18.250Z,1003.17
2019-02-23T05:04:28.183Z,1003.16
2019-02-23T05:05:38.111Z,1003.16
2019-02-23T05:06:48.026Z,1003.18
2019-02-23T05:07:57.967Z,1003.23
2019-02-23T05:09:07.945Z,1003.2
2019-02-23T05:10:17.883Z,1003.14
2019-02-23T05:11:27.802Z,1003.08
2019-02-23T05:12:37.738Z,1003.13
2019-02-23T05:13:47.704Z,1003.11
2019-02-23T05:14:57.729Z,1003.05
2019-02-23T05:16:07.886Z,1003.02
2019-02-23T05:17:17.811Z,1002.97
2019-02-23T05:18:27.741Z,1002.97
2019-02-23T05:19:37.674Z,1003.05
2019-02-23T05:20:47.742Z,1003.06
2019-02-23T05:21:57.667Z,1003.06
2019-02-23T05:23:07.604Z,1003.07
2019-02-23T05:24:17.527Z,1003.06
2019-02-23T05:25:27.193Z,1003.03
2019-02-23T05:26:37.225Z,1003.01
2019-02-23T05:27:47.154Z,1003.08
2019-02-23T05:28:57.080Z,1003.16
2019-02-23T05:30:06.761Z,1003.2
2019-02-23T05:31:16.693Z,1003.16
2019-02-23T05:32:29.717Z,1003.13
2019-02-23T05:33:39.641Z,1003.14
2019-02-23T05:34:49.561Z,1003.1
2019-02-23T05:35:59.505Z,1003.07
2019-02-23T05:37:09.423Z,1003.05
2019-02-23T05:38:19.344Z,1003.01
2019-02-23T05:39:29.280Z,1003.03
2019-02-23T05:40:39.215Z,1003.1
2019-02-23T05:41:49.195Z,1003.12
2019-02-23T05:43:01.133Z,1003.09
2019-02-23T05:44:11.413Z,1003.1
2019-02-23T05:45:21.342Z,1003.05
2019-02-23T05:46:31.281Z,1003.09
2019-02-23T05:47:41.206Z,1003.06
2019-02-23T05:48:51.129Z,1003.08
2019-02-23T05:50:01.049Z,1003.06
2019-02-23T05:51:10.985Z,1003.08
2019-02-23T05:52:20.945Z,1003.15
2019-02-23T05:53:30.869Z,1003.15
2019-02-23T05:54:40.803Z,1003.22
2019-02-23T05:55:50.722Z,1003.2
2019-02-23T05:57:00.413Z,1003.27
2019-02-23T05:58:10.368Z,1003.28
2019-02-23T05:59:20.056Z,1003.21
2019-02-23T06:00:29.990Z,1003.28
2019-02-23T06:01:40.012Z,1003.2
2019-02-23T06:02:49.941Z,1003.23
2019-02-23T06:03:59.621Z,1003.22
2019-02-23T06:05:09.298Z,1003.25
2019-02-23T06:06:18.976Z,1003.26
2019-02-23T06:07:29.006Z,1003.25
2019-02-23T06:08:38.970Z,1003.25
2019-02-23T06:09:48.893Z,1003.19
2019-02-23T06:10:58.814Z,1003.11
2019-02-23T06:12:08.831Z,1003.17
2019-02-23T06:13:18.857Z,1003.15
2019-02-23T06:14:28.776Z,1003.15
2019-02-23T06:15:38.701Z,1003.13
2019-02-23T06:16:48.629Z,1003.05
2019-02-23T06:17:58.548Z,1002.99
2019-02-23T06:19:08.610Z,1003.02
2019-02-23T06:20:18.546Z,1003
2019-02-23T06:21:28.482Z,1003
2019-02-23T06:22:38.397Z,1002.94
2019-02-23T06:23:49.820Z,1002.9
2019-02-23T06:24:59.754Z,1002.87
2019-02-23T06:26:09.719Z,1002.84
2019-02-23T06:27:19.697Z,1002.92
2019-02-23T06:28:29.621Z,1002.86
2019-02-23T06:29:39.598Z,1002.87
2019-02-23T06:30:49.606Z,1002.92
2019-02-23T06:31:59.532Z,1003
2019-02-23T06:33:09.455Z,1003.03
2019-02-23T06:34:19.393Z,1003.06
2019-02-23T06:35:29.334Z,1003.04
2019-02-23T06:36:39.013Z,1003.08
2019-02-23T06:37:48.971Z,1003.1
2019-02-23T06:39:01.034Z,1003.19
2019-02-23T06:40:10.958Z,1003.26
2019-02-23T06:41:20.903Z,1003.26
2019-02-23T06:42:30.926Z,1003.3
2019-02-23T06:43:40.849Z,1003.29
2019-02-23T06:44:50.775Z,1003.34
2019-02-23T06:46:00.787Z,1003.26
2019-02-23T06:47:10.719Z,1003.24
2019-02-23T06:48:20.737Z,1003.27
2019-02-23T06:49:30.661Z,1003.34
2019-02-23T06:50:40.582Z,1003.36
2019-02-23T06:51:50.512Z,1003.37
2019-02-23T06:53:11.558Z,1003.3
2019-02-23T06:54:21.491Z,1003.31
2019-02-23T06:55:31.409Z,1003.32
2019-02-23T06:56:41.357Z,1003.32
2019-02-23T06:57:51.285Z,1003.33
2019-02-23T06:59:01.301Z,1003.25
2019-02-23T07:00:11.232Z,1003.29
2019-02-23T07:01:21.236Z,1003.39
2019-02-23T07:02:31.156Z,1003.35
2019-02-23T07:03:41.087Z,1003.28
2019-02-23T07:04:51.158Z,1003.29
2019-02-23T07:06:01.093Z,1003.24
2019-02-23T07:07:11.029Z,1003.26
2019-02-23T07:08:20.955Z,1003.32
2019-02-23T07:09:30.884Z,1003.31
2019-02-23T07:10:40.594Z,1003.3
2019-02-23T07:11:50.516Z,1003.27
2019-02-23T07:13:00.462Z,1003.27
2019-02-23T07:14:10.384Z,1003.23
2019-02-23T07:15:20.303Z,1003.26
2019-02-23T07:16:30.404Z,1003.27
2019-02-23T07:17:40.328Z,1003.26
2019-02-23T07:18:50.253Z,1003.33
2019-02-23T07:20:00.304Z,1003.37
2019-02-23T07:21:10.231Z,1003.39
2019-02-23T07:22:20.152Z,1003.34
2019-02-23T07:23:30.091Z,1003.43
2019-02-23T07:24:40.010Z,1003.36
2019-02-23T07:25:49.935Z,1003.38
2019-02-23T07:26:59.854Z,1003.43
2019-02-23T07:28:10.923Z,1003.41
2019-02-23T07:29:20.950Z,1003.4
2019-02-23T07:30:30.888Z,1003.39
2019-02-23T07:31:40.803Z,1003.33
2019-02-23T07:32:50.726Z,1003.31
2019-02-23T07:34:00.650Z,1003.33
2019-02-23T07:35:10.585Z,1003.33
2019-02-23T07:36:20.510Z,1003.26
2019-02-23T07:37:30.427Z,1003.24
2019-02-23T07:38:40.348Z,1003.25
2019-02-23T07:39:50.370Z,1003.2
2019-02-23T07:41:00.297Z,1003.22
2019-02-23T07:42:10.221Z,1003.2
2019-02-23T07:43:20.142Z,1003.22
2019-02-23T07:44:30.066Z,1003.2
2019-02-23T07:45:39.837Z,1003.26
2019-02-23T07:46:49.781Z,1003.29
2019-02-23T07:47:59.528Z,1003.22
2019-02-23T07:49:09.451Z,1003.19
2019-02-23T07:50:19.364Z,1003.17
2019-02-23T07:51:28.879Z,1003.13
2019-02-23T07:52:38.806Z,1003.1
2019-02-23T07:53:48.730Z,1003.17
2019-02-23T07:54:58.654Z,1003.23
2019-02-23T07:56:08.574Z,1003.26
2019-02-23T07:57:18.500Z,1003.32
2019-02-23T07:58:28.426Z,1003.37
2019-02-23T07:59:38.349Z,1003.31
2019-02-23T08:00:48.272Z,1003.32
2019-02-23T08:01:58.203Z,1003.38
2019-02-23T08:03:08.229Z,1003.41
2019-02-23T08:04:18.150Z,1003.42
2019-02-23T08:05:27.819Z,1003.39
2019-02-23T08:06:37.755Z,1003.42
2019-02-23T08:07:48.021Z,1003.43
2019-02-23T08:08:57.937Z,1003.41
2019-02-23T08:10:07.855Z,1003.39
2019-02-23T08:11:17.788Z,1003.32
2019-02-23T08:12:27.706Z,1003.26
2019-02-23T08:13:37.644Z,1003.2
2019-02-23T08:14:48.529Z,1003.18
2019-02-23T08:15:58.449Z,1003.13
2019-02-23T08:17:08.383Z,1003.07
2019-02-23T08:18:18.382Z,1003.07
2019-02-23T08:19:28.303Z,1003.23
2019-02-23T08:20:38.228Z,1003.21
2019-02-23T08:21:48.146Z,1003.21
2019-02-23T08:22:58.068Z,1003.29
2019-02-23T08:24:07.983Z,1003.27
2019-02-23T08:25:17.929Z,1003.24
2019-02-23T08:26:27.962Z,1003.24
2019-02-23T08:27:37.878Z,1003.23
2019-02-23T08:28:47.793Z,1003.24
2019-02-23T08:29:57.710Z,1003.26
2019-02-23T08:31:07.770Z,1003.24
2019-02-23T08:32:18.625Z,1003.2
2019-02-23T08:33:28.545Z,1003.24
2019-02-23T08:34:38.467Z,1003.26
2019-02-23T08:35:48.144Z,1003.23
2019-02-23T08:36:58.127Z,1003.18
2019-02-23T08:38:08.153Z,1003.1
2019-02-23T08:39:18.087Z,1003.05
2019-02-23T08:40:28.012Z,1003.1
2019-02-23T08:41:37.932Z,1003.18
2019-02-23T08:42:48.559Z,1003.24
2019-02-23T08:43:58.492Z,1003.14
2019-02-23T08:45:08.432Z,1003.08
2019-02-23T08:46:18.444Z,1003.01
2019-02-23T08:47:28.393Z,1002.99
2019-02-23T08:48:38.313Z,1002.96
2019-02-23T08:49:48.237Z,1003
2019-02-23T08:50:58.178Z,1003.2
2019-02-23T08:52:08.108Z,1003.2
2019-02-23T08:53:18.026Z,1003.23
2019-02-23T08:54:27.696Z,1003.23
2019-02-23T08:55:37.613Z,1003.25
2019-02-23T08:56:47.595Z,1003.26
2019-02-23T08:57:58.249Z,1003.25
2019-02-23T08:59:08.168Z,1003.23
2019-02-23T09:00:18.090Z,1003.25
2019-02-23T09:01:28.017Z,1003.31
2019-02-23T09:02:37.940Z,1003.36
2019-02-23T09:03:49.694Z,1003.23
2019-02-23T09:04:59.773Z,1003.26
2019-02-23T09:06:09.720Z,1003.28
2019-02-23T09:07:19.800Z,1003.27
2019-02-23T09:08:29.723Z,1003.19
2019-02-23T09:09:39.651Z,1003.19
2019-02-23T09:10:49.576Z,1003.17
2019-02-23T09:11:59.495Z,1003.14
2019-02-23T09:13:09.424Z,1003.12
2019-02-23T09:14:19.349Z,1003.13
2019-02-23T09:15:29.275Z,1003.1
2019-02-23T09:16:39.201Z,1003.07
2019-02-23T09:17:49.123Z,1003.08
2019-02-23T09:18:59.150Z,1003.06
2019-02-23T09:20:09.170Z,1003.11
2019-02-23T09:21:29.655Z,1003.11
2019-02-23T09:22:39.579Z,1003.11
2019-02-23T09:24:00.230Z,1003.09
2019-02-23T09:25:10.150Z,1003.1
2019-02-23T09:26:20.069Z,1003.11
2019-02-23T09:27:30.055Z,1003.09
2019-02-23T09:28:39.997Z,1003.09
2019-02-23T09:29:50.087Z,1003.06
2019-02-23T09:31:00.024Z,1003.11
2019-02-23T09:32:11.242Z,1003.08
2019-02-23T09:33:21.170Z,1003.03
2019-02-23T09:34:31.103Z,1003.07
2019-02-23T09:35:41.129Z,1003.05
2019-02-23T09:36:51.053Z,1003.07
2019-02-23T09:38:00.974Z,1002.99
2019-02-23T09:39:10.908Z,1002.98
2019-02-23T09:40:20.835Z,1002.98
2019-02-23T09:41:30.763Z,1003.02
2019-02-23T09:42:40.685Z,1003.02
2019-02-23T09:43:50.606Z,1003.03
2019-02-23T09:45:00.560Z,1002.98
2019-02-23T09:46:10.509Z,1002.81
2019-02-23T09:47:20.547Z,1002.8
2019-02-23T09:48:30.475Z,1002.83
2019-02-23T09:49:40.397Z,1002.91
2019-02-23T09:50:50.323Z,1003
2019-02-23T09:52:00.251Z,1002.95
2019-02-23T09:53:11.395Z,1002.91
2019-02-23T09:54:21.602Z,1002.93
2019-02-23T09:55:33.486Z,1002.96
2019-02-23T09:56:43.405Z,1002.98
2019-02-23T09:57:53.327Z,1002.98
2019-02-23T09:59:03.355Z,1002.96
2019-02-23T10:00:13.280Z,1002.95
2019-02-23T10:01:22.987Z,1002.93
2019-02-23T10:02:32.919Z,1002.9
2019-02-23T10:03:42.596Z,1002.82
2019-02-23T10:04:52.615Z,1002.83
2019-02-23T10:06:02.537Z,1002.8
2019-02-23T10:07:12.459Z,1002.82
2019-02-23T10:08:22.385Z,1002.85
2019-02-23T10:09:32.304Z,1002.88
2019-02-23T10:10:42.330Z,1002.86
2019-02-23T10:11:52.285Z,1002.86
2019-02-23T10:13:02.213Z,1002.84
2019-02-23T10:14:12.140Z,1002.85
2019-02-23T10:15:22.114Z,1002.75
2019-02-23T10:16:32.136Z,1002.71
2019-02-23T10:17:42.071Z,1002.7
2019-02-23T10:18:52.060Z,1002.7
2019-02-23T10:20:02.012Z,1002.76
2019-02-23T10:21:11.939Z,1002.74
2019-02-23T10:22:21.919Z,1002.71
2019-02-23T10:23:31.841Z,1002.77
2019-02-23T10:24:41.763Z,1002.75
2019-02-23T10:25:51.703Z,1002.78
2019-02-23T10:27:01.631Z,1002.83
2019-02-23T10:28:11.656Z,1002.84
2019-02-23T10:29:21.578Z,1002.85
2019-02-23T10:30:31.516Z,1002.82
2019-02-23T10:31:41.440Z,1002.74
2019-02-23T10:32:51.361Z,1002.76
2019-02-23T10:34:01.400Z,1002.8
2019-02-23T10:35:11.326Z,1002.8
2019-02-23T10:36:21.258Z,1002.77
2019-02-23T10:37:31.185Z,1002.74
2019-02-23T10:38:41.187Z,1002.73
2019-02-23T10:39:51.170Z,1002.76
2019-02-23T10:41:01.119Z,1002.78
2019-02-23T10:42:11.121Z,1002.88
2019-02-23T10:43:21.051Z,1002.85
2019-02-23T10:44:30.973Z,1002.76
2019-02-23T10:45:41.033Z,1002.7
2019-02-23T10:46:50.958Z,1002.64
2019-02-23T10:48:00.894Z,1002.6
2019-02-23T10:49:10.821Z,1002.59
2019-02-23T10:50:20.744Z,1002.52
2019-02-23T10:51:30.773Z,1002.46
2019-02-23T10:52:40.694Z,1002.51
2019-02-23T10:53:50.619Z,1002.57
2019-02-23T10:55:00.540Z,1002.63
2019-02-23T10:56:10.465Z,1002.61
2019-02-23T10:57:20.499Z,1002.54
2019-02-23T10:58:30.419Z,1002.56
2019-02-23T10:59:40.340Z,1002.62
2019-02-23T11:00:50.267Z,1002.64
2019-02-23T11:02:00.251Z,1002.69
2019-02-23T11:03:10.229Z,1002.65
2019-02-23T11:04:20.166Z,1002.61
2019-02-23T11:05:30.109Z,1002.6
2019-02-23T11:06:40.036Z,1002.64
2019-02-23T11:07:49.961Z,1002.59
2019-02-23T11:08:59.935Z,1002.56
2019-02-23T11:10:09.863Z,1002.58
2019-02-23T11:11:19.798Z,1002.53
2019-02-23T11:12:29.716Z,1002.56
2019-02-23T11:13:39.639Z,1002.53
2019-02-23T11:14:49.614Z,1002.56
2019-02-23T11:15:59.534Z,1002.57
2019-02-23T11:17:09.463Z,1002.59
2019-02-23T11:18:19.391Z,1002.56
2019-02-23T11:19:29.316Z,1002.58
2019-02-23T11:20:39.256Z,1002.61
2019-02-23T11:21:49.178Z,1002.56
2019-02-23T11:22:59.107Z,1002.55
2019-02-23T11:24:09.044Z,1002.48
2019-02-23T11:25:21.164Z,1002.44
2019-02-23T11:26:30.945Z,1002.48
2019-02-23T11:27:40.874Z,1002.5
2019-02-23T11:28:50.818Z,1002.5
2019-02-23T11:30:00.742Z,1002.59
2019-02-23T11:31:10.666Z,1002.54
2019-02-23T11:32:20.691Z,1002.54
2019-02-23T11:33:30.614Z,1002.62
2019-02-23T11:34:40.540Z,1002.66
2019-02-23T11:35:50.463Z,1002.67
2019-02-23T11:37:00.386Z,1002.67
2019-02-23T11:38:10.334Z,1002.56
2019-02-23T11:39:20.261Z,1002.55
2019-02-23T11:40:30.184Z,1002.55
2019-02-23T11:41:40.143Z,1002.51
2019-02-23T11:42:50.074Z,1002.5
2019-02-23T11:44:00.101Z,1002.47
2019-02-23T11:45:10.028Z,1002.42
2019-02-23T11:46:19.955Z,1002.42
2019-02-23T11:47:29.880Z,1002.48
2019-02-23T11:48:39.814Z,1002.44
2019-02-23T11:49:49.863Z,1002.47
2019-02-23T11:50:59.787Z,1002.5
2019-02-23T11:52:09.714Z,1002.51
2019-02-23T11:53:19.644Z,1002.53
2019-02-23T11:54:29.567Z,1002.48
2019-02-23T11:55:39.336Z,1002.42
2019-02-23T11:56:49.263Z,1002.39
2019-02-23T11:57:59.195Z,1002.38
2019-02-23T11:59:09.115Z,1002.4
2019-02-23T12:00:19.037Z,1002.45
2019-02-23T12:01:29.065Z,1002.42
2019-02-23T12:02:39.033Z,1002.35
2019-02-23T12:03:59.388Z,1002.26
2019-02-23T12:05:09.324Z,1002.25
2019-02-23T12:06:19.252Z,1002.28
2019-02-23T12:07:29.282Z,1002.32
2019-02-23T12:08:39.211Z,1002.3
2019-02-23T12:09:49.140Z,1002.33
2019-02-23T12:10:59.068Z,1002.37
2019-02-23T12:12:09.001Z,1002.36
2019-02-23T12:13:19.027Z,1002.4
2019-02-23T12:14:28.949Z,1002.33
2019-02-23T12:15:38.885Z,1002.39
2019-02-23T12:16:48.814Z,1002.37
2019-02-23T12:17:58.762Z,1002.32
2019-02-23T12:19:08.738Z,1002.34
2019-02-23T12:20:18.667Z,1002.38
2019-02-23T12:21:28.591Z,1002.35
2019-02-23T12:22:38.532Z,1002.31
2019-02-23T12:23:48.492Z,1002.31
2019-02-23T12:25:08.495Z,1002.28
2019-02-23T12:26:23.290Z,1002.24
2019-02-23T12:27:32.958Z,1002.19
2019-02-23T12:28:42.885Z,1002.17
2019-02-23T12:29:52.816Z,1002.1
2019-02-23T12:31:02.845Z,1002.07
2019-02-23T12:32:12.773Z,1002.1
2019-02-23T12:33:22.776Z,1002.11
2019-02-23T12:34:32.698Z,1002.15
2019-02-23T12:35:42.625Z,1002.13
2019-02-23T12:36:52.700Z,1002.13
2019-02-23T12:38:05.130Z,1002.07
2019-02-23T12:39:15.053Z,1002.03
2019-02-23T12:40:24.979Z,1002.03
2019-02-23T12:41:34.904Z,1002.01
2019-02-23T12:42:44.884Z,1001.98
2019-02-23T12:43:54.813Z,1001.96
2019-02-23T12:45:04.748Z,1001.99
2019-02-23T12:46:14.679Z,1001.95
2019-02-23T12:47:24.604Z,1001.96
2019-02-23T12:48:34.585Z,1001.95
2019-02-23T12:49:44.525Z,1001.88
2019-02-23T12:50:54.447Z,1001.91
2019-02-23T12:52:04.379Z,1001.85
2019-02-23T12:53:14.305Z,1001.84
2019-02-23T12:54:24.338Z,1001.82
2019-02-23T12:55:34.266Z,1001.8
2019-02-23T12:56:44.185Z,1001.82
2019-02-23T12:57:54.105Z,1001.84
2019-02-23T12:59:04.056Z,1001.82
2019-02-23T13:00:14.085Z,1001.83
2019-02-23T13:01:24.018Z,1001.8
2019-02-23T13:02:33.942Z,1001.79
2019-02-23T13:03:43.864Z,1001.82
2019-02-23T13:04:53.862Z,1001.85
2019-02-23T13:06:03.833Z,1001.84
2019-02-23T13:07:13.757Z,1001.77
2019-02-23T13:08:23.752Z,1001.75
2019-02-23T13:09:33.681Z,1001.68
2019-02-23T13:10:43.602Z,1001.72
2019-02-23T13:11:53.594Z,1001.71
2019-02-23T13:13:03.523Z,1001.7
2019-02-23T13:14:13.451Z,1001.71
2019-02-23T13:15:23.372Z,1001.73
2019-02-23T13:16:33.293Z,1001.72
2019-02-23T13:17:43.270Z,1001.73
2019-02-23T13:18:53.195Z,1001.72
2019-02-23T13:20:03.121Z,1001.66
2019-02-23T13:21:13.048Z,1001.59
2019-02-23T13:22:22.967Z,1001.61
2019-02-23T13:23:33.077Z,1001.6
2019-02-23T13:24:43.006Z,1001.55
2019-02-23T13:25:52.936Z,1001.53
2019-02-23T13:27:02.870Z,1001.51
2019-02-23T13:28:12.804Z,1001.54
2019-02-23T13:29:22.832Z,1001.59
2019-02-23T13:30:32.764Z,1001.61
2019-02-23T13:31:42.686Z,1001.51
2019-02-23T13:32:52.622Z,1001.53
2019-02-23T13:34:02.545Z,1001.53
2019-02-23T13:35:12.531Z,1001.5
2019-02-23T13:36:22.453Z,1001.55
2019-02-23T13:37:32.379Z,1001.51
2019-02-23T13:38:42.310Z,1001.52
2019-02-23T13:39:52.230Z,1001.51
2019-02-23T13:41:02.254Z,1001.46
2019-02-23T13:42:12.180Z,1001.44
2019-02-23T13:43:22.101Z,1001.4
2019-02-23T13:44:32.024Z,1001.35
2019-02-23T13:45:41.950Z,1001.4
2019-02-23T13:46:51.873Z,1001.38
2019-02-23T13:48:01.801Z,1001.4
2019-02-23T13:49:11.723Z,1001.41
2019-02-23T13:50:21.654Z,1001.4
2019-02-23T13:51:31.575Z,1001.35
2019-02-23T13:52:41.554Z,1001.35
2019-02-23T13:53:51.493Z,1001.31
2019-02-23T13:55:01.421Z,1001.34
2019-02-23T13:56:11.345Z,1001.32
2019-02-23T13:57:22.025Z,1001.3
2019-02-23T13:58:31.948Z,1001.25
2019-02-23T13:59:41.872Z,1001.19
2019-02-23T14:00:51.833Z,1001.2
2019-02-23T14:02:01.758Z,1001.18
2019-02-23T14:03:11.694Z,1001.21
2019-02-23T14:04:23.578Z,1001.22
2019-02-23T14:05:33.629Z,1001.16
2019-02-23T14:06:43.552Z,1001.19
2019-02-23T14:07:53.533Z,1001.23
2019-02-23T14:09:03.464Z,1001.18
2019-02-23T14:10:13.489Z,1001.19
2019-02-23T14:11:23.424Z,1001.21